Accueil
METAR-TAF:

METAR-TAF

Aéroports :

Aéroport civil d'Amman

Amman, Jordanie

latitude: 31-59N, longitude: 035-59E, altitude: 767 m

Observation

Le bulletin a été fait il y a 1 heure et 38 minutes, à 16:00 UTC
Vent 5 kt de ouest
Température 36°C
Humidité 31%
Pression 1010 hPa
Visibilité: 6000 m

METAR: OJAM 201600Z 27005KT 6000 NSC 36/16 Q1010 NOSIG

Heure: 20:38 (17:38 UTC)

Prévision

Le bulletin a été fait il y a 7 heures et 52 minutes, à 09:46 UTC
Prévision valable du 20 à 12 UTC au 21 à 18 UTC
Visibilité: 6000 m
Probabilité 40% :
Temporairement
du 20 à 12 UTC au 20 à 16 UTC
Visibilité: 5000 m
brume sèche
Probabilité 30%
du 21 à 12 UTC au 21 à 16 UTC
Vent 16 kt de nord-ouest
Visibilité: 4000 m
Chasse-poussière élevée,

TAF: OJAM 200946Z 2012/2118 2806KT 6000 NSC PROB40 TEMPO 2012/2016 29014 5000 HZ PROB30 2112/2116 31016KT 4000 BLDU

Observations et prévisions météorologiques de plus de 4000 aéroports (messages METAR et TAF).

Les stations disponibles sont représentées par des disques jaunes et rouges sur la carte.

Passer la souris dessus pour voir le nom de la station.

Cliquer dessus pour voir les observations et prévisions météorologiques.

Pour changer de carte: cliquez sur les boutons verts avec une croix noire pour zoomer, sur le bouton vert avec un tiret pour effectuer un zoom arrière, ou sur les flèches vertes pour les cartes adjacentes.


METAR-TAF: